Time;durP1;ratioP1;P1;durP2;ratioP2;P2;SDS_P1;SDS_P2;PMS_P1;PMS_P2;Temp;Humidity;BMP_temperature;BMP_pressure;BME280_temperature;BME280_humidity;BME280_pressure;Samples;Min_cycle;Max_cycle;Signal;HPM_P1;HPM_P2
2022/05/04 00:01:21;;;;;;;7.67;4.03;;;11.40;78.20;;;;;;5000680;28;20191;-63
2022/05/04 00:03:47;;;;;;;4.23;3.83;;;11.30;78.30;;;;;;5017375;28;20187;-63
2022/05/04 00:06:13;;;;;;;4.70;4.20;;;11.30;78.40;;;;;;5033550;28;20262;-63
2022/05/04 00:08:38;;;;;;;5.80;4.27;;;11.30;78.40;;;;;;5017454;28;20186;-64
2022/05/04 00:11:05;;;;;;;5.07;4.60;;;11.20;78.60;;;;;;5033018;28;20191;-64
2022/05/04 00:13:31;;;;;;;10.47;4.27;;;11.20;78.80;;;;;;5027280;28;20190;-64
2022/05/04 00:16:01;;;;;;;4.50;4.10;;;11.10;79.10;;;;;;5015121;28;20250;-62
2022/05/04 00:18:30;;;;;;;5.30;3.93;;;11.10;79.10;;;;;;5013434;28;20205;-64
2022/05/04 00:20:57;;;;;;;5.43;4.93;;;11.00;79.20;;;;;;5046062;28;20430;-63
2022/05/04 00:23:23;;;;;;;4.63;4.23;;;11.00;79.50;;;;;;5016650;28;20226;-63
2022/05/04 00:25:49;;;;;;;9.20;4.30;;;10.90;79.60;;;;;;5023984;28;20191;-63
2022/05/04 00:28:15;;;;;;;6.23;4.50;;;10.90;79.70;;;;;;5029891;28;20195;-63
2022/05/04 00:30:41;;;;;;;7.63;4.53;;;10.80;80.00;;;;;;5013367;28;20333;-63
2022/05/04 00:33:07;;;;;;;4.40;4.00;;;10.80;80.20;;;;;;5031797;28;20274;-63
2022/05/04 00:35:34;;;;;;;6.50;4.00;;;10.80;80.30;;;;;;5011870;28;20223;-63
2022/05/04 00:38:00;;;;;;;8.63;4.93;;;10.70;80.60;;;;;;5018695;28;20183;-63
2022/05/04 00:40:26;;;;;;;4.70;4.10;;;10.70;80.50;;;;;;5034445;28;20231;-63
2022/05/04 00:42:52;;;;;;;5.20;4.10;;;10.60;80.40;;;;;;5032220;28;20187;-63
2022/05/04 00:45:17;;;;;;;5.63;4.07;;;10.60;80.60;;;;;;5033083;28;20187;-63
2022/05/04 00:47:43;;;;;;;6.33;4.50;;;10.60;80.80;;;;;;5016841;28;20186;-63
2022/05/04 00:50:10;;;;;;;6.60;4.77;;;10.60;80.80;;;;;;5012919;28;20203;-63
2022/05/04 00:52:37;;;;;;;5.73;4.90;;;10.50;80.80;;;;;;5017115;28;20272;-63
2022/05/04 00:55:06;;;;;;;5.90;4.43;;;10.50;80.70;;;;;;5032318;28;20465;-63
2022/05/04 01:00:22;;;;;;;4.90;4.43;;;10.40;81.20;;;;;;5032002;28;20190;-63
2022/05/04 01:02:48;;;;;;;5.63;5.13;;;10.30;81.40;;;;;;5046136;28;20193;-63
2022/05/04 01:05:14;;;;;;;4.60;4.20;;;10.30;81.50;;;;;;5013064;28;20195;-63
2022/05/04 01:07:41;;;;;;;5.70;4.93;;;10.30;81.70;;;;;;5013256;28;20199;-64
2022/05/04 01:10:08;;;;;;;5.90;4.90;;;10.20;81.80;;;;;;5055669;28;20187;-64
2022/05/04 01:12:33;;;;;;;4.80;4.30;;;10.20;82.10;;;;;;5016932;28;20424;-64
2022/05/04 01:15:00;;;;;;;6.93;4.90;;;10.20;82.30;;;;;;5015429;28;20466;-64
2022/05/04 01:17:29;;;;;;;4.57;4.10;;;10.10;82.20;;;;;;5016418;28;20233;-66
2022/05/04 01:19:59;;;;;;;6.77;5.27;;;10.10;82.20;;;;;;5016524;28;20418;-64
2022/05/04 01:22:24;;;;;;;5.47;4.20;;;10.00;82.10;;;;;;5032298;28;20448;-64
2022/05/04 01:24:50;;;;;;;6.23;4.83;;;10.10;82.30;;;;;;5016162;28;20513;-64
2022/05/04 01:27:16;;;;;;;9.53;5.20;;;9.90;82.50;;;;;;5015799;28;20234;-64
2022/05/04 01:29:42;;;;;;;5.80;5.20;;;9.90;82.50;;;;;;5049252;28;20187;-64
2022/05/04 01:32:08;;;;;;;5.53;4.97;;;9.90;82.60;;;;;;5038832;28;20279;-64
2022/05/04 01:34:34;;;;;;;5.73;5.20;;;9.80;82.80;;;;;;5015657;28;20212;-64
2022/05/04 01:37:00;;;;;;;6.23;4.73;;;9.80;83.00;;;;;;5049703;28;20434;-64
2022/05/04 01:39:26;;;;;;;7.07;4.90;;;9.80;83.00;;;;;;5049770;28;20306;-64
2022/05/04 01:42:03;;;;;;;7.30;5.40;;;9.80;83.00;;;;;;4999849;28;20468;-64
2022/05/04 01:44:30;;;;;;;5.07;4.57;;;9.80;83.00;;;;;;5031342;28;20176;-64
2022/05/04 01:46:56;;;;;;;7.47;4.70;;;9.80;83.10;;;;;;5037042;28;20434;-64
2022/05/04 01:49:21;;;;;;;7.47;4.87;;;9.80;83.10;;;;;;5037200;28;20413;-64
2022/05/04 01:51:47;;;;;;;10.90;5.53;;;9.70;83.00;;;;;;5019018;28;20184;-64
2022/05/04 01:54:13;;;;;;;7.73;4.97;;;9.70;83.30;;;;;;5030552;28;20216;-64
2022/05/04 01:56:38;;;;;;;5.50;5.00;;;9.70;83.10;;;;;;4999897;28;20199;-64
2022/05/04 01:59:04;;;;;;;5.83;4.60;;;9.60;83.20;;;;;;5000163;28;20199;-64
2022/05/04 02:01:30;;;;;;;5.83;4.63;;;9.50;83.30;;;;;;5032465;28;20204;-62
2022/05/04 02:03:56;;;;;;;5.43;4.70;;;9.60;83.40;;;;;;5049385;28;20190;-65
2022/05/04 02:06:22;;;;;;;5.17;4.77;;;9.50;83.40;;;;;;5017264;28;20231;-65
2022/05/04 02:08:48;;;;;;;5.73;5.00;;;9.50;83.50;;;;;;5017134;28;20462;-65
2022/05/04 02:11:13;;;;;;;5.33;4.83;;;9.50;83.60;;;;;;5051631;28;20199;-65
2022/05/04 02:13:39;;;;;;;6.97;5.10;;;9.40;83.60;;;;;;5034837;28;20186;-65
2022/05/04 02:16:05;;;;;;;4.97;4.47;;;9.40;83.60;;;;;;5018999;28;20211;-65
2022/05/04 02:18:32;;;;;;;10.67;6.13;;;9.30;83.70;;;;;;5026536;28;20180;-64
2022/05/04 02:20:58;;;;;;;7.67;5.47;;;9.30;83.70;;;;;;5016065;28;20438;-64
2022/05/04 02:23:24;;;;;;;7.60;5.13;;;9.30;83.80;;;;;;5015462;28;20434;-64
2022/05/04 02:25:50;;;;;;;7.50;4.97;;;9.30;83.90;;;;;;5002087;28;20497;-65
2022/05/04 02:28:16;;;;;;;6.27;4.77;;;9.30;84.10;;;;;;4999542;28;20259;-65
2022/05/04 02:30:43;;;;;;;5.73;4.67;;;9.30;83.90;;;;;;5048712;28;20514;-65
2022/05/04 02:33:09;;;;;;;5.97;5.13;;;9.20;84.00;;;;;;5015125;28;20211;-63
2022/05/04 02:38:19;;;;;;;6.07;5.00;;;9.20;84.60;;;;;;5029624;28;20175;-63
2022/05/04 02:40:45;;;;;;;6.57;4.47;;;9.10;84.60;;;;;;5048457;28;20446;-64
2022/05/04 02:43:10;;;;;;;8.40;4.93;;;9.10;84.90;;;;;;5033244;28;20195;-64
2022/05/04 02:45:36;;;;;;;5.03;4.53;;;9.10;85.10;;;;;;5034550;28;20257;-64
2022/05/04 02:48:02;;;;;;;6.37;4.80;;;9.10;84.80;;;;;;5017609;28;20225;-64
2022/05/04 02:50:27;;;;;;;9.13;5.70;;;9.10;84.80;;;;;;5032007;28;20195;-64
2022/05/04 02:52:53;;;;;;;6.73;4.90;;;9.00;84.80;;;;;;5048706;28;20191;-64
2022/05/04 02:55:19;;;;;;;7.07;4.73;;;9.00;84.80;;;;;;5014479;28;20216;-64
2022/05/04 02:57:45;;;;;;;5.43;4.60;;;9.00;84.70;;;;;;4999602;28;20191;-64
2022/05/04 03:00:11;;;;;;;7.47;5.27;;;9.00;84.60;;;;;;5017878;28;20187;-64
2022/05/04 03:02:37;;;;;;;6.30;4.77;;;9.00;84.70;;;;;;5018851;28;20190;-64
2022/05/04 03:05:07;;;;;;;5.90;4.37;;;8.90;85.10;;;;;;5035026;28;20430;-64
2022/05/04 03:07:33;;;;;;;7.60;5.70;;;9.00;85.00;;;;;;5018193;28;20190;-63
2022/05/04 03:09:59;;;;;;;6.80;5.03;;;8.90;85.10;;;;;;5016661;28;20465;-63
2022/05/04 03:12:26;;;;;;;4.73;4.30;;;8.90;85.20;;;;;;5059733;28;20528;-63
2022/05/04 03:14:52;;;;;;;6.07;4.73;;;8.90;85.00;;;;;;5058974;28;20198;-63
2022/05/04 03:17:18;;;;;;;5.17;4.67;;;8.90;85.20;;;;;;5034164;28;20434;-63
2022/05/04 03:19:44;;;;;;;7.87;5.23;;;8.80;85.20;;;;;;5029524;28;20559;-63
2022/05/04 03:22:10;;;;;;;5.87;5.07;;;8.80;85.00;;;;;;5034105;28;20414;-63
2022/05/04 03:24:36;;;;;;;5.83;5.10;;;8.80;85.10;;;;;;5017365;28;20446;-63
2022/05/04 03:27:02;;;;;;;5.70;5.10;;;8.80;85.30;;;;;;5030708;28;20191;-63
2022/05/04 03:29:28;;;;;;;9.90;5.30;;;8.80;85.10;;;;;;5034240;28;20187;-63
2022/05/04 03:31:54;;;;;;;5.40;4.47;;;8.70;85.10;;;;;;5017710;28;20440;-63
2022/05/04 03:34:19;;;;;;;4.90;4.40;;;8.70;85.00;;;;;;5033843;28;20352;-63
2022/05/04 03:36:45;;;;;;;5.67;4.70;;;8.70;85.10;;;;;;5017536;28;20205;-66
2022/05/04 03:39:11;;;;;;;6.47;4.93;;;8.70;85.00;;;;;;5033608;28;20230;-66
2022/05/04 03:41:38;;;;;;;6.00;5.00;;;8.70;85.10;;;;;;5017106;28;20422;-66
2022/05/04 03:44:05;;;;;;;6.00;5.43;;;8.70;85.10;;;;;;5017498;28;20190;-66
2022/05/04 03:46:42;;;;;;;6.67;4.63;;;8.60;85.10;;;;;;5017398;28;20460;-66
2022/05/04 03:49:08;;;;;;;5.97;5.00;;;8.60;85.30;;;;;;5034687;28;20417;-66
2022/05/04 03:51:34;;;;;;;6.07;5.13;;;8.60;85.40;;;;;;5017204;28;20443;-66
2022/05/04 03:54:00;;;;;;;5.30;4.80;;;8.60;85.40;;;;;;5033155;28;20426;-66
2022/05/04 03:56:26;;;;;;;6.10;5.13;;;8.60;85.40;;;;;;5016364;28;20422;-69
2022/05/04 03:58:51;;;;;;;8.33;4.73;;;8.50;85.30;;;;;;5033756;28;20187;-70
2022/05/04 04:01:18;;;;;;;6.93;4.30;;;8.60;85.60;;;;;;5013267;28;20180;-70
2022/05/04 04:03:44;;;;;;;7.00;5.23;;;8.50;85.60;;;;;;5029906;28;20187;-69
2022/05/04 04:06:11;;;;;;;6.50;5.07;;;8.60;85.60;;;;;;5000344;28;20441;-69
2022/05/04 04:08:37;;;;;;;5.10;4.50;;;8.60;85.70;;;;;;5017488;28;20444;-69
2022/05/04 04:11:03;;;;;;;7.93;4.93;;;8.60;85.70;;;;;;5016376;28;20430;-69
2022/05/04 04:13:29;;;;;;;8.87;5.27;;;8.60;85.80;;;;;;5017217;28;20180;-69
2022/05/04 04:15:55;;;;;;;7.97;5.57;;;8.60;85.60;;;;;;5029481;28;20548;-68
2022/05/04 04:18:23;;;;;;;9.90;5.60;;;8.60;85.70;;;;;;5032972;28;20521;-70
2022/05/04 04:23:34;;;;;;;5.73;5.10;;;8.60;85.60;;;;;;5033081;28;20487;-69
2022/05/04 04:26:00;;;;;;;6.37;5.20;;;8.60;85.60;;;;;;5030233;28;20441;-69
2022/05/04 04:28:26;;;;;;;5.90;4.63;;;8.60;85.70;;;;;;5046616;28;20460;-70
2022/05/04 04:30:52;;;;;;;7.27;5.30;;;8.60;86.00;;;;;;5013374;28;20505;-70
2022/05/04 04:33:18;;;;;;;6.93;4.97;;;8.60;86.20;;;;;;5030002;28;20187;-69
2022/05/04 04:35:43;;;;;;;5.50;5.00;;;8.70;86.30;;;;;;5016194;28;20462;-68
2022/05/04 04:38:09;;;;;;;6.50;5.50;;;8.70;86.30;;;;;;5014854;28;20249;-68
2022/05/04 04:40:35;;;;;;;5.57;5.03;;;8.80;86.30;;;;;;5029582;28;20194;-69
2022/05/04 04:43:01;;;;;;;8.77;5.60;;;8.80;86.50;;;;;;5013701;28;20187;-69
2022/05/04 04:45:30;;;;;;;9.00;5.13;;;8.80;86.40;;;;;;5019063;28;20214;-68
2022/05/04 04:47:59;;;;;;;7.40;4.90;;;8.80;86.30;;;;;;5044173;28;20209;-68
2022/05/04 04:50:24;;;;;;;6.30;5.33;;;8.80;86.10;;;;;;5020029;28;20446;-68
2022/05/04 04:52:50;;;;;;;5.03;4.53;;;8.90;86.00;;;;;;5038571;28;20483;-74
2022/05/04 04:55:16;;;;;;;6.23;5.50;;;8.90;85.80;;;;;;5005408;28;20235;-74
2022/05/04 04:57:41;;;;;;;7.30;4.80;;;8.90;86.10;;;;;;5011162;28;20194;-73
2022/05/04 05:00:08;;;;;;;6.23;4.53;;;9.00;86.30;;;;;;4992779;28;20199;-69
2022/05/04 05:02:36;;;;;;;5.93;4.83;;;9.00;86.40;;;;;;4993992;28;20286;-68
2022/05/04 05:05:05;;;;;;;6.63;4.90;;;9.00;86.50;;;;;;5027785;28;20797;-69
2022/05/04 05:07:30;;;;;;;6.73;4.80;;;9.10;86.70;;;;;;5012145;28;20438;-69
2022/05/04 05:09:56;;;;;;;5.30;4.67;;;9.10;86.80;;;;;;5015720;28;20427;-68
2022/05/04 05:12:22;;;;;;;6.17;5.37;;;9.10;86.90;;;;;;5035344;28;20202;-69
2022/05/04 05:17:34;;;;;;;6.63;5.57;;;9.20;87.00;;;;;;5034991;28;20544;-68
2022/05/04 05:20:00;;;;;;;7.03;5.30;;;9.30;86.90;;;;;;5017433;28;20468;-69
2022/05/04 05:22:25;;;;;;;6.10;5.50;;;9.30;86.90;;;;;;5033582;28;20437;-69
2022/05/04 05:24:51;;;;;;;8.20;5.30;;;9.30;86.90;;;;;;5017549;28;20424;-69
2022/05/04 05:27:17;;;;;;;7.53;6.23;;;9.30;86.70;;;;;;5015985;28;20264;-69
2022/05/04 05:29:43;;;;;;;9.43;5.50;;;9.40;86.70;;;;;;5016930;28;20189;-69
2022/05/04 05:32:08;;;;;;;8.23;5.63;;;9.40;86.80;;;;;;5016384;28;20202;-69
2022/05/04 05:34:35;;;;;;;6.23;5.23;;;9.50;86.70;;;;;;5018094;28;20211;-69
2022/05/04 05:37:01;;;;;;;9.57;5.40;;;9.50;86.70;;;;;;5016246;28;20285;-68
2022/05/04 05:39:27;;;;;;;7.97;5.23;;;9.60;86.60;;;;;;5018072;28;20527;-67
2022/05/04 05:41:52;;;;;;;11.17;5.47;;;9.60;86.40;;;;;;5017871;28;20422;-68
2022/05/04 05:44:18;;;;;;;6.37;4.57;;;9.70;86.30;;;;;;5032485;28;20187;-66
2022/05/04 05:46:44;;;;;;;6.90;4.83;;;9.80;86.30;;;;;;5017334;28;20264;-69
2022/05/04 05:49:10;;;;;;;10.97;6.03;;;9.70;86.20;;;;;;5017592;28;20198;-68
2022/05/04 05:51:36;;;;;;;5.13;4.10;;;9.80;86.00;;;;;;5033167;28;20179;-68
2022/05/04 05:54:01;;;;;;;7.37;4.53;;;9.80;85.70;;;;;;5030568;28;20196;-68
2022/05/04 05:56:27;;;;;;;4.67;4.10;;;9.90;85.80;;;;;;5035927;28;20270;-69
2022/05/04 05:58:53;;;;;;;7.47;5.17;;;9.90;85.70;;;;;;5029931;28;20246;-69
2022/05/04 06:01:18;;;;;;;5.77;5.17;;;10.00;85.30;;;;;;5029535;28;20192;-69
2022/05/04 06:03:44;;;;;;;6.33;5.30;;;10.10;84.70;;;;;;5029366;28;20284;-69
2022/05/04 06:06:10;;;;;;;6.50;4.50;;;10.10;84.50;;;;;;5029337;28;20271;-69
2022/05/04 06:08:35;;;;;;;5.83;4.73;;;10.20;84.40;;;;;;5012760;28;20195;-69
2022/05/04 06:11:01;;;;;;;4.50;4.10;;;10.30;84.40;;;;;;5013364;28;20190;-69
2022/05/04 06:13:27;;;;;;;5.43;4.93;;;10.30;84.50;;;;;;5013884;28;20194;-69
2022/05/04 06:15:52;;;;;;;7.60;5.47;;;10.40;84.50;;;;;;5046587;28;20230;-69
2022/05/04 06:18:18;;;;;;;5.13;4.63;;;10.40;84.00;;;;;;5016816;28;20187;-69
2022/05/04 06:20:44;;;;;;;8.83;5.57;;;10.50;83.70;;;;;;5005239;28;20199;-69
2022/05/04 06:23:10;;;;;;;5.47;4.83;;;10.60;83.50;;;;;;5029472;28;20198;-69
2022/05/04 06:25:36;;;;;;;8.33;4.53;;;10.70;83.10;;;;;;5029566;28;20200;-69
2022/05/04 06:28:05;;;;;;;5.40;4.90;;;10.80;83.00;;;;;;5013037;28;20518;-69
2022/05/04 06:35:58;;;;;;;6.33;5.50;;;11.00;82.60;;;;;;5019846;28;20531;-69
2022/05/04 06:38:24;;;;;;;5.53;4.17;;;11.10;82.60;;;;;;5002632;28;20251;-69
2022/05/04 06:40:50;;;;;;;5.13;4.43;;;11.20;82.70;;;;;;5012192;28;20287;-69
2022/05/04 06:43:15;;;;;;;6.90;4.77;;;11.30;82.80;;;;;;5035813;28;20194;-69
2022/05/04 06:45:41;;;;;;;7.87;5.47;;;11.30;82.90;;;;;;5035053;28;20262;-69
2022/05/04 06:48:07;;;;;;;6.50;4.63;;;11.30;82.50;;;;;;5015951;28;20283;-69
2022/05/04 06:50:33;;;;;;;7.93;6.40;;;11.40;82.80;;;;;;5029033;28;20191;-69
2022/05/04 06:52:59;;;;;;;7.13;5.43;;;11.60;82.50;;;;;;5031992;28;20195;-69
2022/05/04 06:55:25;;;;;;;9.63;5.60;;;11.70;81.90;;;;;;5016388;28;20257;-69
2022/05/04 06:57:50;;;;;;;7.13;5.63;;;11.80;81.60;;;;;;5015325;28;20191;-69
2022/05/04 07:00:16;;;;;;;5.40;4.80;;;11.90;80.90;;;;;;5010586;28;20183;-69
2022/05/04 07:02:42;;;;;;;6.57;5.10;;;12.10;80.90;;;;;;5016569;28;20202;-69
2022/05/04 07:05:08;;;;;;;8.77;4.87;;;12.20;80.70;;;;;;5049391;28;20183;-69
2022/05/04 07:07:34;;;;;;;5.00;4.37;;;12.30;80.70;;;;;;5065858;28;20182;-69
2022/05/04 07:09:59;;;;;;;5.27;4.77;;;12.50;80.20;;;;;;5049243;28;20226;-69
2022/05/04 07:12:26;;;;;;;5.53;4.53;;;12.70;80.30;;;;;;5035818;28;20195;-69
2022/05/04 07:14:53;;;;;;;8.10;4.80;;;12.80;79.60;;;;;;5011408;28;20211;-69
2022/05/04 07:17:19;;;;;;;6.03;4.37;;;13.00;78.40;;;;;;5011871;28;20223;-69
2022/05/04 07:19:46;;;;;;;4.80;3.90;;;13.20;77.40;;;;;;5038816;28;20187;-69
2022/05/04 07:22:12;;;;;;;5.00;4.50;;;13.40;76.00;;;;;;5032428;28;20172;-69
2022/05/04 07:24:38;;;;;;;5.07;4.57;;;13.70;74.10;;;;;;5011857;28;20191;-68
2022/05/04 07:27:05;;;;;;;4.00;3.27;;;13.80;74.00;;;;;;5011522;28;20245;-68
2022/05/04 07:29:31;;;;;;;7.20;4.23;;;14.00;73.80;;;;;;5029223;28;20196;-69
2022/05/04 07:31:57;;;;;;;7.17;3.80;;;14.30;72.30;;;;;;5031306;28;20215;-69
2022/05/04 07:34:22;;;;;;;4.97;3.53;;;14.50;72.60;;;;;;5014516;28;20191;-69
2022/05/04 07:36:48;;;;;;;4.03;3.20;;;14.70;70.10;;;;;;4997929;28;20187;-69
2022/05/04 07:42:21;;;;;;;4.40;2.87;;;14.90;69.30;;;;;;5011015;28;20281;-69
2022/05/04 07:44:44;;;;;;;6.33;4.00;;;15.30;69.10;;;;;;5038684;28;20206;-69
2022/05/04 07:47:10;;;;;;;6.57;3.27;;;15.60;65.50;;;;;;5015471;28;20192;-69
2022/05/04 07:49:36;;;;;;;4.27;2.87;;;15.70;65.20;;;;;;5014408;28;20187;-69
2022/05/04 07:52:02;;;;;;;3.57;2.73;;;16.00;61.90;;;;;;5014399;28;20198;-69
2022/05/04 07:54:28;;;;;;;2.83;2.63;;;16.10;61.70;;;;;;5014510;28;20370;-69
2022/05/04 07:56:54;;;;;;;3.53;3.20;;;16.10;62.30;;;;;;5013757;28;20191;-69
2022/05/04 07:59:20;;;;;;;5.20;2.60;;;16.10;62.10;;;;;;5014709;28;20194;-69
2022/05/04 08:04:30;;;;;;;2.83;2.57;;;16.30;57.80;;;;;;5032648;28;20194;-69
2022/05/04 08:06:56;;;;;;;5.20;2.47;;;16.30;59.10;;;;;;5031565;28;20183;-69
2022/05/04 08:09:22;;;;;;;3.53;2.63;;;16.30;59.50;;;;;;5008325;28;20196;-69
2022/05/04 08:11:48;;;;;;;3.37;2.87;;;16.30;60.10;;;;;;5044320;28;20226;-69
2022/05/04 08:14:14;;;;;;;2.93;2.73;;;16.50;59.80;;;;;;5013669;28;20405;-69
2022/05/04 08:16:40;;;;;;;5.33;2.93;;;16.60;59.10;;;;;;5029478;28;20189;-69
2022/05/04 08:19:07;;;;;;;3.70;3.03;;;16.70;59.80;;;;;;5031306;28;20191;-69
2022/05/04 08:21:33;;;;;;;4.10;3.23;;;16.80;59.40;;;;;;5010054;28;20184;-69
2022/05/04 08:24:00;;;;;;;4.10;2.80;;;17.00;57.70;;;;;;5027966;28;20314;-69
2022/05/04 08:26:27;;;;;;;2.90;2.70;;;17.10;59.30;;;;;;5010283;28;20187;-69
2022/05/04 08:28:53;;;;;;;4.40;2.30;;;17.20;59.70;;;;;;5026580;28;20176;-69
2022/05/04 08:31:21;;;;;;;2.77;2.57;;;17.40;55.00;;;;;;5026146;28;20192;-69
2022/05/04 08:33:48;;;;;;;4.93;3.03;;;17.60;53.00;;;;;;5027660;28;20195;-69
2022/05/04 08:36:14;;;;;;;3.63;2.97;;;17.90;52.70;;;;;;5028914;28;20219;-69
2022/05/04 08:38:40;;;;;;;3.13;2.83;;;18.00;53.90;;;;;;5030251;28;20238;-69
2022/05/04 08:41:06;;;;;;;4.17;2.80;;;18.20;52.60;;;;;;5014525;28;20179;-69
2022/05/04 08:43:33;;;;;;;6.00;3.40;;;18.20;52.80;;;;;;5030694;28;20190;-69
2022/05/04 08:46:01;;;;;;;6.77;3.50;;;18.10;53.60;;;;;;5013496;28;20202;-69
2022/05/04 08:48:27;;;;;;;4.77;3.83;;;18.10;53.90;;;;;;5030167;28;20237;-69
2022/05/04 08:50:54;;;;;;;6.20;3.83;;;18.10;51.50;;;;;;5010002;28;20223;-69
2022/05/04 08:53:20;;;;;;;8.77;4.50;;;18.10;53.20;;;;;;5010777;28;20400;-69
2022/05/04 08:55:47;;;;;;;7.20;3.73;;;18.10;54.00;;;;;;5023179;28;20306;-69
2022/05/04 08:58:12;;;;;;;4.10;3.10;;;18.10;54.60;;;;;;5063844;28;20190;-69
2022/05/04 09:00:38;;;;;;;6.10;3.33;;;18.00;55.20;;;;;;5046569;28;20195;-69
2022/05/04 09:03:07;;;;;;;4.03;3.53;;;18.10;54.30;;;;;;5031268;28;20172;-69
2022/05/04 09:05:40;;;;;;;7.77;3.77;;;18.20;54.00;;;;;;5029280;28;20191;-69
2022/05/04 09:08:07;;;;;;;5.93;3.60;;;18.40;53.10;;;;;;5031095;28;20182;-69
2022/05/04 09:10:37;;;;;;;4.07;3.23;;;18.30;53.90;;;;;;5014327;28;20324;-69
2022/05/04 09:13:04;;;;;;;7.20;4.07;;;18.30;53.80;;;;;;5013189;28;20296;-69
2022/05/04 09:15:35;;;;;;;3.20;2.90;;;18.40;54.40;;;;;;5030813;28;20222;-69
2022/05/04 09:18:08;;;;;;;4.37;2.60;;;18.60;54.00;;;;;;5009351;28;20284;-69
2022/05/04 09:20:47;;;;;;;5.40;3.13;;;18.80;52.70;;;;;;5031210;28;20176;-69
2022/05/04 09:23:16;;;;;;;4.23;3.20;;;19.20;52.40;;;;;;5029182;28;20238;-69
2022/05/04 09:25:42;;;;;;;6.53;3.90;;;19.40;50.60;;;;;;5029950;28;20194;-69
2022/05/04 09:28:13;;;;;;;5.10;3.80;;;19.70;51.10;;;;;;4995008;28;20188;-69
2022/05/04 09:30:47;;;;;;;5.40;3.70;;;19.80;50.10;;;;;;5010649;28;20226;-69
2022/05/04 09:33:17;;;;;;;5.57;3.60;;;20.00;47.90;;;;;;5011222;28;20188;-69
2022/05/04 09:35:43;;;;;;;4.53;2.83;;;19.80;47.50;;;;;;5018563;28;20374;-69
2022/05/04 09:46:39;;;;;;;4.33;3.27;;;19.70;50.90;;;;;;5058634;28;20261;-69
2022/05/04 09:49:19;;;;;;;3.23;2.93;;;19.70;49.80;;;;;;5030554;28;20191;-69
2022/05/04 09:51:54;;;;;;;5.50;2.80;;;19.60;47.50;;;;;;5010928;28;20195;-69
2022/05/04 09:54:27;;;;;;;4.13;2.57;;;19.60;49.80;;;;;;4995367;28;20191;-69
2022/05/04 09:56:59;;;;;;;3.90;2.80;;;19.60;50.70;;;;;;4998253;28;20195;-69
2022/05/04 09:59:30;;;;;;;3.70;3.10;;;19.60;49.40;;;;;;5030782;28;20234;-68
2022/05/04 10:01:59;;;;;;;3.87;2.80;;;19.80;48.00;;;;;;5016536;28;20198;-68
2022/05/04 10:04:25;;;;;;;4.87;3.00;;;19.80;48.60;;;;;;5013730;28;20191;-68
2022/05/04 10:06:52;;;;;;;3.97;2.90;;;19.80;49.00;;;;;;5014124;28;20188;-69
2022/05/04 10:09:19;;;;;;;4.83;2.70;;;20.00;49.80;;;;;;5017169;28;20202;-67
2022/05/04 10:11:46;;;;;;;6.10;3.30;;;20.00;48.80;;;;;;5066753;28;20281;-67
2022/05/04 10:14:15;;;;;;;3.17;2.90;;;20.00;47.80;;;;;;5053251;28;20190;-67
2022/05/04 10:16:57;;;;;;;5.00;3.03;;;20.00;46.70;;;;;;5062414;28;20253;-68
2022/05/04 10:19:47;;;;;;;4.83;2.67;;;20.10;45.90;;;;;;5065781;28;20178;-69
2022/05/04 10:22:17;;;;;;;6.03;2.80;;;20.20;47.80;;;;;;5066296;28;20183;-67
2022/05/04 10:24:44;;;;;;;3.57;2.43;;;20.30;42.50;;;;;;5046361;28;20187;-67
2022/05/04 10:27:18;;;;;;;3.03;2.60;;;20.30;46.30;;;;;;5023520;28;20186;-68
2022/05/04 10:33:01;;;;;;;2.40;2.20;;;20.40;47.40;;;;;;5014472;28;20570;-68
2022/05/04 10:35:40;;;;;;;3.03;2.57;;;20.50;45.30;;;;;;5046120;28;20206;-68
2022/05/04 10:38:13;;;;;;;3.70;2.23;;;20.70;43.30;;;;;;5012676;28;20168;-68
2022/05/04 10:40:45;;;;;;;2.87;2.27;;;20.80;44.30;;;;;;5028084;28;20241;-67
2022/05/04 10:43:13;;;;;;;4.07;2.40;;;21.00;45.80;;;;;;5033386;28;20167;-68
2022/05/04 10:45:41;;;;;;;3.50;2.10;;;21.00;43.70;;;;;;5030798;28;20187;-66
2022/05/04 10:48:23;;;;;;;3.07;2.33;;;21.00;45.50;;;;;;5032362;28;20216;-65
2022/05/04 10:51:11;;;;;;;2.47;2.27;;;21.10;44.40;;;;;;5032226;28;20210;-69
2022/05/04 10:54:00;;;;;;;2.90;2.57;;;21.20;45.90;;;;;;5032129;28;20187;-69
2022/05/04 10:56:28;;;;;;;2.67;2.47;;;21.30;47.20;;;;;;5044772;28;20207;-69
2022/05/04 10:58:55;;;;;;;3.10;2.47;;;21.40;44.10;;;;;;4995384;28;20223;-73
2022/05/04 11:01:27;;;;;;;2.73;2.40;;;21.50;44.30;;;;;;5028015;28;20195;-69
2022/05/04 11:04:11;;;;;;;4.00;2.63;;;21.70;43.50;;;;;;5012946;28;20231;-67
2022/05/04 11:07:09;;;;;;;3.30;2.67;;;21.70;45.40;;;;;;5011218;28;20179;-68
2022/05/04 11:09:42;;;;;;;2.83;2.57;;;21.90;43.00;;;;;;5012093;28;20199;-71
2022/05/04 11:12:10;;;;;;;4.03;3.00;;;22.00;44.00;;;;;;5012291;28;20279;-72
2022/05/04 11:14:37;;;;;;;4.10;3.10;;;22.20;41.30;;;;;;5028884;28;20320;-71
2022/05/04 11:17:12;;;;;;;9.53;2.80;;;22.30;40.70;;;;;;5023938;28;20279;-71
2022/05/04 11:19:45;;;;;;;3.67;3.03;;;22.20;39.60;;;;;;5031343;28;20179;-71
2022/05/04 11:22:12;;;;;;;3.07;2.80;;;22.30;41.40;;;;;;5025424;28;20187;-70
2022/05/04 11:24:38;;;;;;;3.23;2.50;;;22.50;42.70;;;;;;5031067;28;20187;-70
2022/05/04 11:27:04;;;;;;;3.53;3.03;;;22.60;39.20;;;;;;5013448;28;20202;-71
2022/05/04 11:29:30;;;;;;;3.20;2.90;;;22.80;38.70;;;;;;5015925;28;20258;-71
2022/05/04 11:31:58;;;;;;;2.77;2.53;;;22.80;42.10;;;;;;5032412;28;20221;-70
2022/05/04 11:34:30;;;;;;;2.67;2.47;;;23.00;38.10;;;;;;5031228;28;20254;-70
2022/05/04 11:36:58;;;;;;;3.57;3.07;;;23.20;38.10;;;;;;5063693;28;20241;-71
2022/05/04 11:39:26;;;;;;;2.53;2.33;;;23.30;37.30;;;;;;5018052;28;20243;-71
2022/05/04 11:41:54;;;;;;;2.60;2.40;;;23.60;38.30;;;;;;5028480;28;20188;-70
2022/05/04 11:44:21;;;;;;;2.80;2.60;;;23.70;38.80;;;;;;5018972;28;20195;-68
2022/05/04 11:47:00;;;;;;;3.00;2.40;;;23.90;39.70;;;;;;5015492;28;20274;-69
2022/05/04 11:49:29;;;;;;;2.43;2.03;;;24.20;38.10;;;;;;5030069;28;20187;-67
2022/05/04 11:51:56;;;;;;;5.77;2.23;;;24.50;37.40;;;;;;5015127;28;20210;-68
2022/05/04 11:54:22;;;;;;;3.03;2.60;;;24.80;39.10;;;;;;5030985;28;20214;-69
2022/05/04 11:56:48;;;;;;;3.07;2.77;;;24.80;38.80;;;;;;5011723;28;20200;-69
2022/05/04 11:59:14;;;;;;;2.70;2.50;;;25.00;37.10;;;;;;5011552;28;20183;-69
2022/05/04 12:01:40;;;;;;;4.47;2.53;;;25.30;39.00;;;;;;5029622;28;20182;-68
2022/05/04 12:04:09;;;;;;;2.80;2.60;;;25.30;35.60;;;;;;5029814;28;20179;-69
2022/05/04 12:06:36;;;;;;;5.10;2.63;;;25.50;36.10;;;;;;5063561;28;20186;-69
2022/05/04 12:09:03;;;;;;;3.00;2.30;;;25.70;36.90;;;;;;5014637;28;20213;-68
2022/05/04 12:11:29;;;;;;;4.80;2.60;;;25.80;36.80;;;;;;5029915;28;20190;-67
2022/05/04 12:13:59;;;;;;;4.50;2.83;;;26.10;33.80;;;;;;5044597;28;20198;-68
2022/05/04 12:16:25;;;;;;;3.63;2.60;;;26.10;35.80;;;;;;5022715;28;20207;-68
2022/05/04 12:18:51;;;;;;;2.20;2.00;;;25.80;38.40;;;;;;5026617;28;20246;-68
2022/05/04 12:21:22;;;;;;;2.60;2.40;;;25.30;38.10;;;;;;5013577;28;20191;-68
2022/05/04 12:23:50;;;;;;;3.27;2.73;;;25.10;38.20;;;;;;5030678;28;20195;-68
2022/05/04 12:26:17;;;;;;;2.73;2.20;;;24.90;36.40;;;;;;5030663;28;20572;-68
2022/05/04 12:33:08;;;;;;;2.87;2.40;;;24.80;38.10;;;;;;5028869;28;20187;-65
2022/05/04 12:34:16;;;;;;;2.70;2.50;;;24.90;39.90;;;;;;5031310;28;20186;-72
2022/05/04 12:36:45;;;;;;;4.10;2.93;;;25.10;37.70;;;;;;5028635;28;20218;-73
2022/05/04 12:39:10;;;;;;;3.00;2.57;;;25.30;36.20;;;;;;5028945;28;20333;-73
2022/05/04 12:41:37;;;;;;;3.97;2.77;;;25.80;35.50;;;;;;5007212;28;20326;-68
2022/05/04 12:44:07;;;;;;;2.47;2.20;;;26.50;33.90;;;;;;5060210;28;20253;-69
2022/05/04 12:46:34;;;;;;;2.93;2.20;;;26.90;33.20;;;;;;5044927;28;20187;-71
2022/05/04 12:49:00;;;;;;;2.60;2.40;;;28.20;32.50;;;;;;5014501;28;20191;-76
2022/05/04 12:51:26;;;;;;;2.90;2.60;;;29.20;32.80;;;;;;5030014;28;20194;-74
2022/05/04 12:53:52;;;;;;;3.13;2.40;;;30.40;28.10;;;;;;5030863;28;20190;-70
2022/05/04 12:59:03;;;;;;;4.97;2.80;;;32.80;26.30;;;;;;5030094;28;20237;-70
2022/05/04 13:01:31;;;;;;;2.27;2.07;;;34.10;24.20;;;;;;5029519;28;20197;-70
2022/05/04 13:03:58;;;;;;;3.13;2.43;;;34.50;23.70;;;;;;5009880;28;20196;-70
2022/05/04 13:06:24;;;;;;;2.60;2.40;;;33.70;23.10;;;;;;5010498;28;20191;-70
2022/05/04 13:08:49;;;;;;;2.40;2.20;;;32.20;25.60;;;;;;5043030;28;20202;-70
2022/05/04 13:11:16;;;;;;;3.33;2.50;;;31.60;25.40;;;;;;5009991;28;20188;-70
2022/05/04 13:13:42;;;;;;;2.80;2.30;;;30.80;25.50;;;;;;5050775;28;20190;-70
2022/05/04 13:16:08;;;;;;;4.60;2.53;;;29.90;27.30;;;;;;5029536;28;20210;-70
2022/05/04 13:18:34;;;;;;;2.73;2.53;;;28.70;28.40;;;;;;5030862;28;20183;-71
2022/05/04 13:20:59;;;;;;;2.30;2.10;;;28.00;30.70;;;;;;5049353;28;20195;-71
2022/05/04 13:23:25;;;;;;;5.97;2.90;;;27.30;31.70;;;;;;5015675;28;20218;-72
2022/05/04 13:25:51;;;;;;;3.37;2.60;;;26.70;33.30;;;;;;5032524;28;20197;-70
2022/05/04 13:28:16;;;;;;;2.73;2.27;;;25.40;34.20;;;;;;5032527;28;20199;-70
2022/05/04 13:30:42;;;;;;;5.77;2.40;;;25.60;34.10;;;;;;5036589;28;20239;-65